West Jefferson, Ohio
Current Conditions -  °F | °C
As of 3:50 PM on Sunday 23 Nov 2014 (Local Time) from KTZR Reporting Station
Overcast Overcast  
Wind Chill: 63°   Ceiling: 15000
Heat Index: 63°   Visibility: 10mi
Dew Point: 43°   Wind: 14mph
Humidity: 48%   Direction: 120°ESE
Pressure: 29.69"   Gusts: 18mph
Location:  39.94°N, 83.27°W
Report Text: KTZR 232050Z 12012G16KT 10SM SCT075 OVC150 17/06 A2969
Loading
Personal Weather Stations






























Interactive Weather Map New forecast layout! Learn more

10-Day Weather Forecast

Advertisements
Track Severe Weather on mobile